Time;durP1;ratioP1;P1;durP2;ratioP2;P2;SDS_P1;SDS_P2;PMS_P1;PMS_P2;Temp;Humidity;BMP_temperature;BMP_pressure;BME280_temperature;BME280_humidity;BME280_pressure;Samples;Min_cycle;Max_cycle;Signal;HPM_P1;HPM_P2
2022/04/21 00:01:19;;;;;;;3.63;2.70;;;;;;;11.29;73.31;100281.09;8353336;28;20485;-64
2022/04/21 00:05:19;;;;;;;7.50;2.65;;;;;;;11.13;74.28;100287.16;8349956;28;20041;-64
2022/04/21 00:09:19;;;;;;;4.95;2.40;;;;;;;10.91;75.22;100286.69;8350283;28;20440;-64
2022/04/21 00:13:20;;;;;;;3.35;2.55;;;;;;;11.02;74.56;100292.78;8348021;28;20048;-64
2022/04/21 00:17:21;;;;;;;3.10;2.65;;;;;;;11.05;74.42;100278.94;8352688;28;20044;-63
2022/04/21 00:23:25;;;;;;;4.50;2.90;;;;;;;10.89;75.03;100278.72;8352279;28;20029;-64
2022/04/21 00:25:41;;;;;;;5.70;3.03;;;;;;;10.91;75.40;100276.72;8337531;28;20037;-65
2022/04/21 00:29:43;;;;;;;6.60;2.88;;;;;;;10.99;74.86;100279.53;8353102;28;20029;-64
2022/04/21 00:33:44;;;;;;;3.90;2.92;;;;;;;10.86;75.54;100275.47;8356620;28;20091;-64
2022/04/21 00:37:50;;;;;;;6.70;3.00;;;;;;;10.70;76.07;100276.09;8356783;28;20124;-64
2022/04/21 00:42:07;;;;;;;5.68;2.90;;;;;;;10.55;76.81;100284.81;8357190;28;20036;-64
2022/04/21 00:46:17;;;;;;;3.63;3.03;;;;;;;10.40;77.42;100279.00;8358147;28;20404;-64
2022/04/21 00:50:23;;;;;;;4.78;2.88;;;;;;;10.51;76.74;100281.56;8351614;28;20032;-64
2022/04/21 00:54:24;;;;;;;7.03;3.25;;;;;;;10.46;76.87;100270.31;8358209;28;20124;-64
2022/04/21 00:58:25;;;;;;;11.05;3.50;;;;;;;10.21;78.45;100276.34;8324112;28;20315;-64
2022/04/21 01:02:57;;;;;;;5.22;2.85;;;;;;;10.13;78.59;100268.13;8358346;28;20523;-64
2022/04/21 01:06:46;;;;;;;6.57;3.63;;;;;;;10.09;78.83;100266.69;8349764;28;20128;-65
2022/04/21 01:10:49;;;;;;;4.30;3.35;;;;;;;9.77;80.46;100263.41;8357654;28;20044;-64
2022/04/21 01:14:49;;;;;;;4.05;3.30;;;;;;;9.85;80.47;100260.81;8357451;28;20037;-64
2022/04/21 01:18:51;;;;;;;5.30;3.20;;;;;;;10.02;79.46;100261.00;8357374;28;20029;-64
2022/04/21 01:22:52;;;;;;;7.10;3.53;;;;;;;10.07;78.93;100257.03;8357394;28;20037;-64
2022/04/21 01:26:54;;;;;;;4.40;3.38;;;;;;;9.96;79.43;100258.84;8357631;28;20045;-64
2022/04/21 01:30:55;;;;;;;11.25;3.88;;;;;;;10.12;78.89;100255.59;8357170;28;20501;-64
2022/04/21 01:34:55;;;;;;;5.38;3.38;;;;;;;10.22;78.63;100255.59;8357346;28;20678;-64
2022/04/21 01:43:16;;;;;;;5.90;3.85;;;;;;;9.82;80.28;100261.97;8349321;28;20037;-64
2022/04/21 01:47:16;;;;;;;6.63;4.20;;;;;;;9.97;79.78;100257.00;8356923;28;20063;-65
2022/04/21 01:51:17;;;;;;;6.93;3.20;;;;;;;9.70;80.50;100237.97;8356710;28;20547;-65
2022/04/21 01:55:18;;;;;;;5.07;4.00;;;;;;;9.34;82.64;100241.34;8353638;28;20129;-64
2022/04/21 01:59:18;;;;;;;5.55;3.53;;;;;;;9.54;81.62;100240.38;8338821;28;20041;-65
2022/04/21 02:03:19;;;;;;;7.20;4.00;;;;;;;9.56;81.72;100235.69;8356830;28;20858;-64
2022/04/21 02:07:19;;;;;;;5.10;4.13;;;;;;;9.49;82.05;100234.56;8356032;28;20044;-65
2022/04/21 02:11:20;;;;;;;6.35;3.83;;;;;;;9.36;82.87;100233.94;8355731;28;20037;-64
2022/04/21 02:15:20;;;;;;;8.32;3.90;;;;;;;9.03;83.40;100226.25;8337920;28;20120;-63
2022/04/21 02:19:21;;;;;;;7.18;3.97;;;;;;;9.21;83.53;100229.97;8355809;28;20378;-65
2022/04/21 02:23:22;;;;;;;5.00;3.53;;;;;;;8.99;83.89;100231.03;8337842;28;20345;-64
2022/04/21 02:27:23;;;;;;;7.97;4.53;;;;;;;8.75;85.43;100237.78;8355649;28;20091;-65
2022/04/21 02:31:23;;;;;;;5.78;4.53;;;;;;;8.81;84.10;100234.53;8355425;28;20036;-63
2022/04/21 02:35:24;;;;;;;6.82;4.63;;;;;;;8.82;84.70;100234.41;8337008;28;20052;-63
2022/04/21 02:39:25;;;;;;;8.98;5.43;;;;;;;8.77;84.82;100235.78;8354558;28;20349;-64
2022/04/21 02:43:25;;;;;;;7.25;5.88;;;;;;;8.75;84.96;100222.44;8352611;28;20044;-64
2022/04/21 02:47:26;;;;;;;8.17;5.63;;;;;;;8.69;85.00;100222.16;8351204;28;20033;-64
2022/04/21 02:51:29;;;;;;;10.23;5.60;;;;;;;8.33;86.56;100220.00;8355430;28;20353;-64
2022/04/21 02:59:53;;;;;;;7.38;5.35;;;;;;;7.92;90.44;100227.09;8354097;28;20061;-64
2022/04/21 03:03:54;;;;;;;9.77;5.70;;;;;;;7.82;89.65;100231.56;8337129;28;20032;-64
2022/04/21 03:07:55;;;;;;;7.13;5.40;;;;;;;7.92;89.62;100232.47;8355599;28;20512;-64
2022/04/21 03:12:02;;;;;;;11.35;5.30;;;;;;;7.80;90.72;100220.06;8333597;28;20446;-64
2022/04/21 03:16:02;;;;;;;8.00;5.45;;;;;;;7.64;90.61;100216.97;8351548;28;20370;-64
2022/04/21 03:20:03;;;;;;;11.35;5.85;;;;;;;7.77;90.92;100219.44;8315773;28;20029;-64
2022/04/21 03:24:19;;;;;;;7.78;6.60;;;;;;;7.80;90.57;100211.97;8353764;28;20056;-64
2022/04/21 03:28:20;;;;;;;8.00;5.65;;;;;;;7.81;89.82;100219.06;8354049;28;20154;-64
2022/04/21 03:32:20;;;;;;;7.47;5.85;;;;;;;7.54;91.83;100216.00;8335930;28;20168;-63
2022/04/21 03:36:21;;;;;;;9.63;5.80;;;;;;;7.37;93.66;100218.41;8347234;28;20055;-63
2022/04/21 03:40:22;;;;;;;10.82;5.90;;;;;;;7.12;95.33;100219.59;8353494;28;20343;-63
2022/04/21 03:44:22;;;;;;;8.35;5.88;;;;;;;6.87;96.28;100219.91;8353401;28;20040;-63
2022/04/21 03:48:23;;;;;;;12.45;6.43;;;;;;;7.11;96.15;100223.25;8353885;28;20234;-63
2022/04/21 03:52:23;;;;;;;8.57;5.35;;;;;;;7.32;95.33;100218.78;8366655;28;20461;-63
2022/04/21 03:56:24;;;;;;;9.55;4.97;;;;;;;7.25;94.12;100231.03;8353397;28;20091;-63
2022/04/21 04:00:24;;;;;;;8.88;5.47;;;;;;;7.36;93.83;100222.94;8352973;28;20407;-63
2022/04/21 04:04:25;;;;;;;11.57;5.40;;;;;;;7.17;94.00;100225.44;8336281;28;20460;-63
2022/04/21 04:12:46;;;;;;;7.63;5.63;;;;;;;7.14;94.95;100239.13;8359619;28;20033;-64
2022/04/21 04:16:46;;;;;;;8.88;5.90;;;;;;;6.87;94.79;100236.03;8359994;28;20520;-64
2022/04/21 04:20:47;;;;;;;9.70;6.75;;;;;;;6.89;96.38;100234.03;8359876;28;20052;-63
2022/04/21 04:24:53;;;;;;;10.40;7.50;;;;;;;6.91;97.00;100236.59;8345542;28;20091;-64
2022/04/21 04:28:54;;;;;;;8.82;6.57;;;;;;;6.92;96.34;100239.16;8358561;28;20045;-65
2022/04/21 04:32:54;;;;;;;14.90;6.95;;;;;;;6.87;95.08;100241.41;8355019;28;20131;-64
2022/04/21 04:36:55;;;;;;;10.82;6.82;;;;;;;7.08;94.62;100236.94;8365471;28;20064;-65
2022/04/21 04:40:55;;;;;;;8.18;6.70;;;;;;;7.18;93.83;100237.91;8359253;28;20048;-64
2022/04/21 04:49:17;;;;;;;8.13;6.10;;;;;;;7.40;90.77;100245.91;8357207;28;20032;-64
2022/04/21 04:53:17;;;;;;;10.32;6.97;;;;;;;7.15;91.99;100245.34;8356962;28;20037;-64
2022/04/21 04:57:18;;;;;;;11.95;6.35;;;;;;;7.28;90.41;100246.91;8358527;28;20053;-65
2022/04/21 05:01:28;;;;;;;12.48;7.03;;;;;;;7.24;91.79;100245.47;8358037;28;20468;-64
2022/04/21 05:05:28;;;;;;;13.70;7.38;;;;;;;7.11;92.88;100250.13;8358745;28;20401;-64
2022/04/21 05:09:29;;;;;;;13.02;8.32;;;;;;;6.91;94.94;100241.97;8340400;28;20083;-64
2022/04/21 05:13:30;;;;;;;14.40;7.45;;;;;;;7.31;94.51;100249.34;8354329;28;20493;-64
2022/04/21 05:17:30;;;;;;;14.00;7.22;;;;;;;7.67;91.20;100243.59;8357096;28;20060;-65
2022/04/21 05:21:32;;;;;;;19.23;7.28;;;;;;;7.71;92.36;100238.81;8323582;28;20525;-65
2022/04/21 05:25:36;;;;;;;12.02;7.18;;;;;;;7.84;92.08;100245.72;8357829;28;20041;-65
2022/04/21 05:31:08;;;;;;;11.85;7.43;;;;;;;8.15;91.99;100235.03;8357820;28;20037;-65
2022/04/21 05:33:57;;;;;;;11.73;6.43;;;;;;;8.52;89.44;100228.16;8353037;28;20049;-65
2022/04/21 05:37:58;;;;;;;16.25;6.10;;;;;;;8.86;88.49;100225.06;8350736;28;20029;-65
2022/04/21 05:41:59;;;;;;;10.30;5.97;;;;;;;9.27;85.70;100226.72;8353939;28;20067;-65
2022/04/21 05:45:59;;;;;;;10.40;6.18;;;;;;;9.68;83.80;100231.88;8355745;28;20044;-65
2022/04/21 05:50:00;;;;;;;14.05;6.53;;;;;;;9.70;81.70;100221.78;8356952;28;20056;-65
2022/04/21 05:54:04;;;;;;;14.38;6.22;;;;;;;10.15;80.79;100228.28;8338704;28;20029;-64
2022/04/21 05:58:05;;;;;;;20.50;7.32;;;;;;;10.47;81.10;100223.38;8355826;28;20057;-64
2022/04/21 06:02:07;;;;;;;16.90;6.35;;;;;;;10.52;79.95;100214.84;8356936;28;20033;-64
2022/04/21 06:06:09;;;;;;;14.45;6.40;;;;;;;10.96;79.16;100214.94;8343191;28;20037;-64
2022/04/21 06:10:09;;;;;;;14.15;6.40;;;;;;;11.03;78.85;100216.03;8355870;28;20037;-64
2022/04/21 06:14:10;;;;;;;12.13;5.93;;;;;;;11.35;76.63;100210.97;8355817;28;20041;-64
2022/04/21 06:18:10;;;;;;;14.10;6.15;;;;;;;11.35;76.04;100208.25;8319395;28;20048;-64
2022/04/21 06:22:11;;;;;;;13.27;6.72;;;;;;;11.67;75.50;100205.06;8324990;28;20041;-65
2022/04/21 06:26:11;;;;;;;11.45;6.07;;;;;;;11.88;74.20;100203.75;8331469;28;20041;-65
2022/04/21 06:30:12;;;;;;;9.55;6.22;;;;;;;12.09;73.50;100205.25;8354964;28;20345;-65
2022/04/21 06:34:12;;;;;;;9.85;6.93;;;;;;;12.17;73.36;100202.59;8354275;28;20041;-65
2022/04/21 06:38:13;;;;;;;12.40;7.70;;;;;;;12.23;73.20;100197.38;8354523;28;20076;-65
2022/04/21 06:42:14;;;;;;;15.60;7.75;;;;;;;12.43;72.11;100195.31;8355539;28;20040;-65
2022/04/21 06:50:36;;;;;;;10.90;6.53;;;;;;;12.76;71.60;100199.91;8352828;28;20067;-64
2022/04/21 06:54:36;;;;;;;7.38;6.15;;;;;;;12.76;72.73;100199.91;8354447;28;20099;-63
2022/04/21 06:58:37;;;;;;;10.40;5.53;;;;;;;13.21;72.05;100205.91;8353924;28;20041;-64
2022/04/21 07:02:38;;;;;;;11.55;5.05;;;;;;;12.71;70.36;100207.66;8353764;28;20496;-64
2022/04/21 07:06:39;;;;;;;8.20;5.45;;;;;;;13.23;70.22;100209.28;8336361;28;20114;-63
2022/04/21 07:10:39;;;;;;;10.93;5.35;;;;;;;13.11;67.50;100222.31;8357376;28;20033;-64
2022/04/21 07:14:41;;;;;;;10.70;5.90;;;;;;;13.02;68.91;100208.88;8346272;28;20047;-64
2022/04/21 07:18:41;;;;;;;10.13;5.28;;;;;;;13.46;68.03;100204.94;8347079;28;20043;-64
2022/04/21 07:22:41;;;;;;;11.23;5.88;;;;;;;13.68;67.24;100209.72;8329060;28;20061;-64
2022/04/21 07:26:42;;;;;;;11.27;5.90;;;;;;;14.31;66.02;100207.22;8334909;28;20116;-64
2022/04/21 07:30:42;;;;;;;8.85;5.10;;;;;;;14.03;65.04;100203.13;8348829;28;20041;-63
2022/04/21 07:34:43;;;;;;;10.75;5.15;;;;;;;13.83;65.74;100214.34;8334825;28;20045;-65
2022/04/21 07:38:43;;;;;;;12.02;5.43;;;;;;;14.60;67.29;100208.34;8351231;28;20037;-64
2022/04/21 07:42:45;;;;;;;11.40;5.43;;;;;;;14.64;63.61;100201.53;8350811;28;20037;-65
2022/04/21 07:46:45;;;;;;;8.90;4.93;;;;;;;14.91;62.19;100206.53;8351368;28;20314;-64
2022/04/21 07:50:45;;;;;;;8.17;4.90;;;;;;;14.83;63.79;100193.00;8352301;28;20567;-64
2022/04/21 07:54:46;;;;;;;11.70;4.35;;;;;;;14.59;63.23;100184.91;8346139;28;20272;-64
2022/04/21 07:58:46;;;;;;;10.75;4.68;;;;;;;15.10;62.61;100192.50;8345185;28;20045;-62
2022/04/21 08:02:48;;;;;;;7.83;4.70;;;;;;;15.16;63.09;100183.63;8317953;28;20084;-62
2022/04/21 08:06:49;;;;;;;11.82;4.82;;;;;;;15.32;60.45;100183.56;8338422;28;20367;-62
2022/04/21 08:10:49;;;;;;;11.98;5.15;;;;;;;15.43;61.27;100175.00;8337208;28;20049;-62
2022/04/21 08:14:51;;;;;;;7.70;4.90;;;;;;;15.25;62.40;100174.38;8324059;28;20045;-62
2022/04/21 08:18:52;;;;;;;9.35;4.60;;;;;;;15.38;61.15;100182.88;8341946;28;20847;-62
2022/04/21 08:22:53;;;;;;;11.93;4.63;;;;;;;15.90;61.72;100171.25;8315941;28;20040;-62
2022/04/21 08:32:46;;;;;;;10.20;4.75;;;;;;;15.98;60.54;100171.19;8339596;28;20071;-62
2022/04/21 08:35:34;;;;;;;7.00;4.53;;;;;;;15.97;60.45;100166.75;8332366;28;20046;-62
2022/04/21 08:39:34;;;;;;;8.15;4.20;;;;;;;16.22;60.00;100179.16;8330348;28;20041;-62
2022/04/21 08:43:36;;;;;;;8.60;4.32;;;;;;;16.35;59.12;100182.91;8326692;28;20048;-62
2022/04/21 08:47:40;;;;;;;12.18;5.22;;;;;;;16.31;58.75;100178.06;8325364;28;20045;-62
2022/04/21 08:51:40;;;;;;;11.90;4.90;;;;;;;16.35;58.28;100176.63;8326505;28;20545;-62
2022/04/21 08:55:42;;;;;;;8.27;3.97;;;;;;;16.19;57.78;100171.34;8335713;28;20501;-62
2022/04/21 08:59:42;;;;;;;7.15;4.53;;;;;;;16.39;57.62;100172.50;8319729;28;20067;-62
2022/04/21 09:03:46;;;;;;;4.95;4.05;;;;;;;16.52;56.78;100165.38;8324388;28;20032;-62
2022/04/21 09:07:50;;;;;;;6.93;4.20;;;;;;;17.02;55.98;100164.63;8320868;28;20041;-62
2022/04/21 09:11:52;;;;;;;8.90;3.33;;;;;;;17.27;57.18;100155.06;8338687;28;20076;-62
2022/04/21 09:16:00;;;;;;;4.53;2.92;;;;;;;17.22;54.67;100162.97;8340300;28;20085;-62
2022/04/21 09:20:03;;;;;;;3.72;2.85;;;;;;;17.22;53.72;100160.25;8336965;28;20266;-62
2022/04/21 09:24:26;;;;;;;7.50;2.30;;;;;;;17.11;51.53;100142.47;8335974;28;20184;-62
2022/04/21 09:28:29;;;;;;;3.60;2.30;;;;;;;17.66;52.98;100136.41;8328395;28;20060;-59
2022/04/21 09:32:29;;;;;;;2.78;2.40;;;;;;;17.80;50.40;100137.34;8328283;28;20041;-58
2022/04/21 09:36:30;;;;;;;6.80;2.70;;;;;;;18.05;50.70;100131.28;8337494;28;20469;-59
2022/04/21 09:40:32;;;;;;;5.95;2.03;;;;;;;18.69;50.45;100124.59;8334461;28;20591;-60
2022/04/21 09:46:08;;;;;;;2.38;1.90;;;;;;;18.96;47.70;100118.22;8334150;28;20349;-59
2022/04/21 09:48:57;;;;;;;3.60;2.33;;;;;;;21.62;43.85;100111.91;8342131;28;20045;-60
2022/04/21 09:53:01;;;;;;;4.07;1.98;;;;;;;21.77;42.26;100115.22;8343315;28;20037;-59
2022/04/21 09:57:03;;;;;;;3.33;1.75;;;;;;;23.02;41.77;100100.00;8338122;28;20468;-59
2022/04/21 10:01:04;;;;;;;2.50;1.45;;;;;;;23.93;40.07;100098.72;8327933;28;20532;-58
2022/04/21 10:05:06;;;;;;;6.00;2.00;;;;;;;23.32;38.79;100089.06;8327442;28;20160;-58
2022/04/21 10:09:08;;;;;;;6.32;1.35;;;;;;;24.45;38.55;100085.94;8335656;28;20041;-61
2022/04/21 10:13:08;;;;;;;4.63;1.38;;;;;;;23.82;37.74;100085.72;8312011;28;20463;-58
2022/04/21 10:17:10;;;;;;;6.30;1.52;;;;;;;23.74;38.44;100079.72;8341501;28;20068;-59
2022/04/21 10:21:10;;;;;;;3.88;1.27;;;;;;;24.18;37.48;100090.28;8332962;28;20037;-59
2022/04/21 10:25:11;;;;;;;1.73;1.17;;;;;;;25.67;36.70;100078.09;8334807;28;20048;-58
2022/04/21 10:29:27;;;;;;;1.50;1.27;;;;;;;24.39;35.92;100070.34;8331011;28;20052;-59
2022/04/21 10:33:57;;;;;;;1.35;1.13;;;;;;;25.03;36.32;100072.91;8330082;28;20045;-58
2022/04/21 10:38:17;;;;;;;5.30;1.50;;;;;;;24.98;35.58;100070.88;8333820;28;20505;-57
2022/04/21 10:42:18;;;;;;;5.10;1.38;;;;;;;25.74;37.06;100070.47;8318305;28;20456;-57
2022/04/21 10:46:21;;;;;;;6.20;1.80;;;;;;;24.81;37.16;100058.06;8330626;28;20449;-59
2022/04/21 10:50:31;;;;;;;1.65;1.33;;;;;;;23.94;37.72;100049.88;8342649;28;20036;-58
2022/04/21 10:59:12;;;;;;;7.85;1.92;;;;;;;24.09;37.89;100031.78;8341951;28;20053;-58
2022/04/21 11:03:13;;;;;;;3.45;1.30;;;;;;;24.52;37.81;100031.41;8335114;28;20048;-62
2022/04/21 11:07:13;;;;;;;4.30;1.80;;;;;;;21.73;41.76;100025.88;8284782;28;20037;-62
2022/04/21 11:11:49;;;;;;;3.13;1.27;;;;;;;21.31;42.59;100022.81;8339696;28;20045;-63
2022/04/21 11:15:53;;;;;;;2.78;1.13;;;;;;;21.39;41.59;100016.19;8323730;28;20048;-62
2022/04/21 11:19:54;;;;;;;4.97;1.38;;;;;;;20.83;42.57;100018.00;8327807;28;20528;-62
2022/04/21 11:24:01;;;;;;;1.67;1.40;;;;;;;20.75;43.86;100004.50;8312103;28;20044;-62
2022/04/21 11:28:02;;;;;;;2.83;1.40;;;;;;;20.83;43.71;100007.00;8332504;28;20049;-58
2022/04/21 11:32:03;;;;;;;6.03;1.50;;;;;;;20.56;42.97;100005.41;8329683;28;20045;-59
2022/04/21 11:36:06;;;;;;;4.75;1.67;;;;;;;19.83;43.81;99997.53;8314077;28;20371;-58
2022/04/21 11:40:18;;;;;;;3.67;1.53;;;;;;;19.59;45.26;99989.97;8306979;28;20551;-58
2022/04/21 11:44:21;;;;;;;1.75;1.20;;;;;;;19.26;44.96;99996.28;8333961;28;20037;-58
2022/04/21 11:48:27;;;;;;;4.57;1.10;;;;;;;19.60;45.20;99988.91;8336331;28;20578;-58
2022/04/21 11:52:28;;;;;;;2.83;1.88;;;;;;;19.58;45.37;99994.63;8334111;28;20146;-58
2022/04/21 11:56:28;;;;;;;7.15;2.13;;;;;;;19.08;46.20;99987.78;8334049;28;20053;-57
2022/04/21 12:09:15;;;;;;;4.05;1.80;;;;;;;18.82;47.82;99998.66;8331520;28;20044;-58
2022/04/21 12:13:15;;;;;;;4.90;2.17;;;;;;;18.64;48.51;99986.59;8313202;28;20370;-59
2022/04/21 12:17:16;;;;;;;5.25;2.25;;;;;;;18.44;49.26;99983.78;8333954;28;20041;-58
2022/04/21 12:21:20;;;;;;;5.38;2.50;;;;;;;18.39;49.03;99975.31;8317561;28;20040;-58
2022/04/21 12:25:30;;;;;;;7.38;2.63;;;;;;;18.16;50.41;99980.25;8333939;28;20036;-58
2022/04/21 12:29:31;;;;;;;4.72;2.50;;;;;;;17.90;50.04;99980.06;8343855;28;20120;-61
2022/04/21 12:33:42;;;;;;;4.32;2.30;;;;;;;17.90;49.80;99982.81;8336323;28;20052;-61
2022/04/21 12:38:50;;;;;;;3.38;2.15;;;;;;;17.96;50.00;99971.06;8339204;28;20079;-61
2022/04/21 12:42:12;;;;;;;3.75;2.70;;;;;;;17.84;50.76;99964.47;8340458;28;20452;-61
2022/04/21 12:46:12;;;;;;;5.22;2.78;;;;;;;17.83;50.98;99951.00;8337291;28;20043;-61
2022/04/21 12:50:21;;;;;;;7.18;3.13;;;;;;;17.96;50.17;99956.56;8332602;28;20037;-61
2022/04/21 12:54:26;;;;;;;4.00;2.65;;;;;;;17.93;51.12;99944.13;8337777;28;20045;-61
2022/04/21 12:58:31;;;;;;;6.38;3.30;;;;;;;18.25;50.91;99940.72;8335878;28;20052;-61
2022/04/21 13:02:31;;;;;;;6.63;2.50;;;;;;;18.35;51.51;99937.59;8336772;28;20048;-62
2022/04/21 13:06:32;;;;;;;7.47;3.40;;;;;;;18.72;51.23;99921.53;8341333;28;20088;-61
2022/04/21 13:10:32;;;;;;;10.07;2.50;;;;;;;18.69;52.09;99921.09;8338308;28;20154;-61
2022/04/21 13:14:33;;;;;;;6.47;3.10;;;;;;;18.44;49.87;99923.56;8344228;28;20060;-61
2022/04/21 13:18:34;;;;;;;4.72;2.75;;;;;;;18.50;50.68;99922.75;8335894;28;20288;-62
2022/04/21 13:22:35;;;;;;;7.82;2.65;;;;;;;18.62;50.68;99904.66;8332991;28;20044;-59
2022/04/21 13:26:36;;;;;;;11.02;3.30;;;;;;;18.65;50.66;99900.66;8340501;28;20559;-61
2022/04/21 13:30:36;;;;;;;5.72;2.97;;;;;;;18.83;50.55;99900.91;8331901;28;20041;-61
2022/04/21 13:34:37;;;;;;;4.22;2.53;;;;;;;18.86;50.53;99893.13;8338264;28;20485;-61
2022/04/21 13:38:38;;;;;;;11.48;2.75;;;;;;;18.86;51.04;99873.94;8338879;28;20096;-62
2022/04/21 13:42:39;;;;;;;6.55;2.60;;;;;;;19.29;49.85;99874.41;8345527;28;20539;-60
2022/04/21 13:46:39;;;;;;;8.50;2.83;;;;;;;19.29;49.79;99875.25;8338674;28;20410;-62
2022/04/21 13:50:39;;;;;;;3.83;2.37;;;;;;;19.51;50.11;99883.25;8334314;28;20275;-62
2022/04/21 13:54:40;;;;;;;6.22;2.78;;;;;;;18.77;51.52;99886.16;8335718;28;20366;-62
2022/04/21 13:58:40;;;;;;;6.43;2.80;;;;;;;18.49;52.33;99871.78;8339684;28;20045;-62
2022/04/21 14:02:41;;;;;;;6.70;2.70;;;;;;;18.60;53.23;99884.84;8340685;28;20052;-62
2022/04/21 14:06:42;;;;;;;6.05;2.83;;;;;;;18.50;52.82;99870.72;8329968;28;20041;-60
2022/04/21 14:10:44;;;;;;;5.75;2.88;;;;;;;18.08;53.23;99868.22;8340398;28;20053;-62
2022/04/21 14:14:45;;;;;;;4.90;2.70;;;;;;;18.02;53.99;99869.03;8334323;28;20044;-60
2022/04/21 14:18:46;;;;;;;4.88;2.63;;;;;;;18.03;54.62;99857.06;8323189;28;20037;-60
2022/04/21 14:22:47;;;;;;;8.32;2.65;;;;;;;18.12;54.32;99861.31;8341099;28;20047;-61
2022/04/21 14:26:47;;;;;;;3.78;2.20;;;;;;;18.33;54.50;99855.69;8336829;28;20356;-59
2022/04/21 14:30:48;;;;;;;4.40;2.67;;;;;;;18.44;53.74;99849.66;8335244;28;20043;-55
2022/04/21 14:34:48;;;;;;;4.00;2.47;;;;;;;18.46;53.80;99849.44;8332534;28;20530;-58
2022/04/21 14:44:10;;;;;;;6.38;1.70;;;;;;;18.63;53.68;99832.41;8338811;28;20588;-59
2022/04/21 14:47:30;;;;;;;2.92;1.73;;;;;;;18.56;51.96;99836.19;8342074;28;20037;-62
2022/04/21 14:51:30;;;;;;;9.75;2.20;;;;;;;18.61;53.26;99831.78;8346188;28;20041;-61
2022/04/21 14:55:32;;;;;;;6.20;2.10;;;;;;;18.83;52.82;99833.28;8344426;28;20334;-59
2022/04/21 14:59:34;;;;;;;7.55;2.53;;;;;;;18.67;53.09;99835.59;8340320;28;20091;-62
2022/04/21 15:03:36;;;;;;;3.28;2.35;;;;;;;18.55;53.13;99827.16;8321992;28;20076;-61
2022/04/21 15:07:37;;;;;;;4.55;2.45;;;;;;;18.55;52.90;99827.16;8342502;28;20049;-62
2022/04/21 15:11:41;;;;;;;6.13;2.25;;;;;;;18.45;54.09;99832.16;8329254;28;20120;-62
2022/04/21 15:15:41;;;;;;;2.40;1.53;;;;;;;18.56;54.21;99837.03;8349520;28;20416;-62
2022/04/21 15:19:44;;;;;;;4.15;1.80;;;;;;;18.69;54.78;99834.31;8342241;28;20437;-62
2022/04/21 15:23:44;;;;;;;5.75;1.55;;;;;;;18.63;54.21;99826.13;8346946;28;20339;-62
2022/04/21 15:27:44;;;;;;;5.10;1.45;;;;;;;18.67;53.47;99830.94;8346635;28;20336;-62
2022/04/21 15:31:45;;;;;;;2.65;1.50;;;;;;;18.47;52.76;99824.59;8349005;28;20106;-63
2022/04/21 15:35:46;;;;;;;4.32;1.40;;;;;;;18.40;53.84;99826.50;8329038;28;20379;-62
2022/04/21 15:39:48;;;;;;;4.18;1.42;;;;;;;18.25;54.65;99831.25;8348024;28;20039;-62
2022/04/21 15:43:50;;;;;;;5.97;1.60;;;;;;;18.21;53.94;99829.16;8318893;28;20132;-62
2022/04/21 15:47:50;;;;;;;2.50;1.50;;;;;;;18.11;54.21;99824.06;8348704;28;20044;-62
2022/04/21 15:51:51;;;;;;;5.43;1.88;;;;;;;18.06;54.84;99829.31;8325534;28;20037;-62
2022/04/21 16:00:12;;;;;;;7.63;1.60;;;;;;;17.94;56.11;99828.22;8347716;28;20372;-62
2022/04/21 16:04:13;;;;;;;4.13;1.92;;;;;;;17.82;56.63;99834.47;8351330;28;20456;-62
2022/04/21 16:08:13;;;;;;;3.00;2.03;;;;;;;17.80;56.13;99821.00;8351324;28;20132;-62
2022/04/21 16:12:14;;;;;;;3.03;1.63;;;;;;;17.74;56.73;99827.28;8348725;28;20409;-63
2022/04/21 16:16:18;;;;;;;2.97;1.67;;;;;;;17.70;56.93;99820.53;8334071;28;20041;-63
2022/04/21 16:20:18;;;;;;;3.42;2.10;;;;;;;17.75;56.68;99818.00;8352033;28;20038;-62
2022/04/21 16:24:19;;;;;;;4.82;2.08;;;;;;;17.95;56.56;99813.47;8349929;28;20133;-63
2022/04/21 16:28:19;;;;;;;3.20;2.17;;;;;;;17.79;57.76;99822.06;8353382;28;20164;-63
2022/04/21 16:32:20;;;;;;;2.80;1.80;;;;;;;17.72;58.88;99829.38;8352549;28;20061;-63
2022/04/21 16:36:22;;;;;;;6.00;2.05;;;;;;;17.71;57.71;99827.69;8347527;28;20033;-63
2022/04/21 16:40:22;;;;;;;5.07;2.28;;;;;;;17.60;58.33;99826.34;8353339;28;20036;-62
2022/04/21 16:44:23;;;;;;;4.22;2.60;;;;;;;17.62;59.35;99822.59;8351195;28;20069;-62
2022/04/21 16:48:23;;;;;;;9.85;3.83;;;;;;;17.52;59.25;99818.34;8353865;28;20091;-62
2022/04/21 16:52:26;;;;;;;7.78;3.05;;;;;;;17.43;60.05;99818.69;8334036;28;20056;-62
2022/04/21 16:56:27;;;;;;;6.35;2.85;;;;;;;17.38;59.26;99821.16;8349638;28;20072;-62
2022/04/21 17:04:48;;;;;;;10.05;4.53;;;;;;;17.25;59.80;99827.38;8342190;28;20044;-62
2022/04/21 17:08:49;;;;;;;11.23;3.87;;;;;;;17.13;60.49;99830.88;8350154;28;20482;-62
2022/04/21 17:12:50;;;;;;;5.47;3.42;;;;;;;17.05;60.72;99831.03;8348656;28;20335;-62
2022/04/21 17:16:51;;;;;;;7.50;3.25;;;;;;;17.01;61.32;99837.91;8350174;28;20041;-62
2022/04/21 17:20:51;;;;;;;5.20;2.67;;;;;;;17.00;61.04;99834.34;8347461;28;20097;-62
2022/04/21 17:24:51;;;;;;;6.38;2.58;;;;;;;16.97;59.86;99845.69;8347921;28;20506;-62
2022/04/21 17:28:52;;;;;;;2.40;2.20;;;;;;;16.95;60.03;99842.28;8340783;28;20124;-62
2022/04/21 17:32:53;;;;;;;2.80;2.38;;;;;;;16.92;60.23;99850.03;8349562;28;20073;-62
2022/04/21 17:36:53;;;;;;;4.10;2.40;;;;;;;16.98;59.80;99846.50;8337939;28;20056;-62
2022/04/21 17:40:55;;;;;;;4.13;2.30;;;;;;;16.88;60.28;99846.84;8341765;28;20047;-63
2022/04/21 17:44:58;;;;;;;4.82;2.40;;;;;;;16.73;60.85;99848.81;8341906;28;20095;-63
2022/04/21 17:48:59;;;;;;;4.20;3.13;;;;;;;16.72;60.66;99846.28;8345763;28;20041;-63
2022/04/21 17:52:59;;;;;;;4.87;2.60;;;;;;;16.64;61.13;99854.59;8335845;28;20497;-64
2022/04/21 17:56:59;;;;;;;7.70;3.17;;;;;;;16.54;61.25;99848.63;8344003;28;20404;-63
2022/04/21 18:01:00;;;;;;;7.65;2.90;;;;;;;16.46;61.38;99856.94;8345877;28;20041;-64
2022/04/21 18:05:00;;;;;;;6.82;2.70;;;;;;;16.33;62.34;99860.34;8343851;28;20029;-63
2022/04/21 18:09:03;;;;;;;2.60;2.00;;;;;;;16.27;62.15;99863.00;8326465;28;20469;-63
2022/04/21 18:13:04;;;;;;;6.78;2.28;;;;;;;16.25;61.13;99868.66;8340973;28;20607;-64
2022/04/21 18:17:05;;;;;;;3.72;2.15;;;;;;;16.15;60.87;99849.03;8332502;28;20041;-63
2022/04/21 18:21:06;;;;;;;3.65;1.52;;;;;;;16.19;60.66;99857.69;8312270;28;20036;-64
2022/04/21 18:25:07;;;;;;;5.50;1.60;;;;;;;16.09;61.33;99854.38;8338879;28;20036;-64
2022/04/21 18:29:08;;;;;;;4.78;1.88;;;;;;;15.97;61.04;99850.47;8324353;28;20155;-64
2022/04/21 18:33:08;;;;;;;4.40;1.40;;;;;;;15.89;61.50;99858.78;8346528;28;20048;-64
2022/04/21 18:37:08;;;;;;;5.68;1.75;;;;;;;15.82;61.83;99857.84;8347568;28;20060;-65
2022/04/21 18:41:09;;;;;;;3.87;1.87;;;;;;;15.72;61.79;99858.13;8337545;28;20041;-64
2022/04/21 18:45:10;;;;;;;5.43;1.73;;;;;;;15.57;62.25;99860.88;8325216;28;20372;-64
2022/04/21 18:49:11;;;;;;;4.05;2.15;;;;;;;15.59;61.79;99853.34;8336049;28;20334;-65
2022/04/21 18:53:12;;;;;;;4.65;2.10;;;;;;;15.45;62.21;99856.94;8334951;28;20037;-63
2022/04/21 18:57:12;;;;;;;4.20;2.05;;;;;;;15.44;62.39;99849.78;8338357;28;20060;-64
2022/04/21 19:01:13;;;;;;;3.78;1.77;;;;;;;15.32;62.92;99856.72;8335492;28;20111;-64
2022/04/21 19:05:16;;;;;;;4.95;2.25;;;;;;;15.30;62.60;99860.63;8338117;28;20092;-65
2022/04/21 19:10:16;;;;;;;2.88;2.28;;;;;;;15.21;63.25;99857.16;8335570;28;20060;-64
2022/04/21 19:13:38;;;;;;;4.75;2.50;;;;;;;15.00;63.95;99848.88;8331299;28;20136;-64
2022/04/21 19:17:38;;;;;;;5.47;2.22;;;;;;;14.86;64.88;99851.56;8335157;28;20041;-64
2022/04/21 19:21:39;;;;;;;9.27;2.63;;;;;;;14.87;64.26;99845.94;8334015;28;20103;-64
2022/04/21 19:25:40;;;;;;;4.40;2.45;;;;;;;14.89;64.64;99849.34;8337978;28;20079;-63
2022/04/21 19:29:43;;;;;;;5.32;2.33;;;;;;;14.83;65.09;99847.34;8336339;28;20044;-64
2022/04/21 19:33:47;;;;;;;6.32;2.58;;;;;;;14.95;64.20;99851.28;8337392;28;20060;-64
2022/04/21 19:37:48;;;;;;;;;;;;;;;15.03;63.59;99851.22;8336997;28;20491;-63
2022/04/21 19:41:49;;;;;;;5.82;2.50;;;;;;;15.09;63.50;99849.63;8317162;28;20380;-63
2022/04/21 19:45:50;;;;;;;7.47;2.97;;;;;;;15.07;63.83;99841.63;8336288;28;20056;-63